Terminal Aerodrome Forecast
Issued by NWS Grand Forks, ND

Home | Current Version | Previous Version | Graphics & Text | Print | Product List | Glossary On
Versions: 1 2 3 4 5 6 7 8 9 10 11 12 13 14 15 16
000
FTUS43 KFGF 232127 AAA
TAFGFK
TAF AMD
KGFK 232127Z 2321/2418 01010KT P6SM FEW010 OVC035
      TEMPO 2321/2324 P6SM OVC025
     FM240200 35007KT P6SM SCT150=

USA.gov is the U.S. government's official web portal to all federal, state and local government web resources and services.